sensor_id;sensor_type;location;lat;lon;timestamp;P1;durP1;ratioP1;P2;durP2;ratioP2
10347;SDS011;5220;43.192;23.284;2024-03-23T00:53:35;11.57;;;6.18;;
10347;SDS011;5220;43.192;23.284;2024-03-23T00:56:02;6.82;;;4.60;;
10347;SDS011;5220;43.192;23.284;2024-03-23T00:58:28;9.82;;;6.38;;
10347;SDS011;5220;43.192;23.284;2024-03-23T01:00:55;13.43;;;8.25;;
10347;SDS011;5220;43.192;23.284;2024-03-23T01:03:20;37.30;;;20.92;;
10347;SDS011;5220;43.192;23.284;2024-03-23T01:05:47;36.08;;;19.67;;
10347;SDS011;5220;43.192;23.284;2024-03-23T01:08:13;18.73;;;11.05;;
10347;SDS011;5220;43.192;23.284;2024-03-23T01:10:41;31.00;;;16.70;;
10347;SDS011;5220;43.192;23.284;2024-03-23T01:13:07;23.50;;;14.23;;
10347;SDS011;5220;43.192;23.284;2024-03-23T01:15:34;21.90;;;12.00;;
10347;SDS011;5220;43.192;23.284;2024-03-23T01:17:59;18.75;;;11.93;;
10347;SDS011;5220;43.192;23.284;2024-03-23T01:20:26;34.58;;;18.75;;
10347;SDS011;5220;43.192;23.284;2024-03-23T01:22:52;34.53;;;18.48;;
10347;SDS011;5220;43.192;23.284;2024-03-23T01:25:19;33.65;;;18.50;;
10347;SDS011;5220;43.192;23.284;2024-03-23T01:27:46;32.13;;;16.10;;
10347;SDS011;5220;43.192;23.284;2024-03-23T01:30:13;42.05;;;23.20;;
10347;SDS011;5220;43.192;23.284;2024-03-23T01:32:39;22.02;;;12.85;;
10347;SDS011;5220;43.192;23.284;2024-03-23T01:35:05;6.43;;;5.03;;
10347;SDS011;5220;43.192;23.284;2024-03-23T01:37:31;4.03;;;3.30;;
10347;SDS011;5220;43.192;23.284;2024-03-23T01:39:58;18.55;;;11.40;;
10347;SDS011;5220;43.192;23.284;2024-03-23T01:42:24;37.47;;;22.83;;
10347;SDS011;5220;43.192;23.284;2024-03-23T01:44:52;17.15;;;10.70;;
10347;SDS011;5220;43.192;23.284;2024-03-23T01:47:17;6.80;;;5.00;;
10347;SDS011;5220;43.192;23.284;2024-03-23T01:49:44;5.57;;;3.78;;
10347;SDS011;5220;43.192;23.284;2024-03-23T01:52:10;4.43;;;3.50;;
10347;SDS011;5220;43.192;23.284;2024-03-23T01:54:37;3.42;;;3.13;;
10347;SDS011;5220;43.192;23.284;2024-03-23T01:57:03;5.13;;;3.35;;
10347;SDS011;5220;43.192;23.284;2024-03-23T01:59:30;3.67;;;3.00;;
10347;SDS011;5220;43.192;23.284;2024-03-23T02:01:58;6.53;;;2.90;;
10347;SDS011;5220;43.192;23.284;2024-03-23T02:04:24;3.17;;;2.72;;
10347;SDS011;5220;43.192;23.284;2024-03-23T02:06:50;6.28;;;3.00;;
10347;SDS011;5220;43.192;23.284;2024-03-23T02:09:17;4.20;;;3.10;;
10347;SDS011;5220;43.192;23.284;2024-03-23T02:11:43;3.78;;;3.08;;
10347;SDS011;5220;43.192;23.284;2024-03-23T02:14:09;3.83;;;3.25;;
10347;SDS011;5220;43.192;23.284;2024-03-23T02:16:35;4.60;;;3.80;;
10347;SDS011;5220;43.192;23.284;2024-03-23T02:19:03;4.05;;;3.45;;
10347;SDS011;5220;43.192;23.284;2024-03-23T02:21:29;4.55;;;3.58;;
10347;SDS011;5220;43.192;23.284;2024-03-23T02:23:58;4.25;;;3.53;;
10347;SDS011;5220;43.192;23.284;2024-03-23T02:26:24;4.65;;;3.60;;
10347;SDS011;5220;43.192;23.284;2024-03-23T02:28:50;6.32;;;4.25;;
10347;SDS011;5220;43.192;23.284;2024-03-23T02:31:16;8.27;;;5.72;;
10347;SDS011;5220;43.192;23.284;2024-03-23T02:33:43;9.27;;;5.97;;
10347;SDS011;5220;43.192;23.284;2024-03-23T02:36:08;6.85;;;4.78;;
10347;SDS011;5220;43.192;23.284;2024-03-23T02:38:35;12.13;;;7.32;;
10347;SDS011;5220;43.192;23.284;2024-03-23T02:41:03;4.97;;;4.10;;
10347;SDS011;5220;43.192;23.284;2024-03-23T02:43:30;5.03;;;3.65;;
10347;SDS011;5220;43.192;23.284;2024-03-23T02:45:56;7.63;;;5.30;;
10347;SDS011;5220;43.192;23.284;2024-03-23T02:48:23;10.05;;;6.10;;
10347;SDS011;5220;43.192;23.284;2024-03-23T02:50:48;6.50;;;4.55;;
10347;SDS011;5220;43.192;23.284;2024-03-23T02:53:15;5.47;;;4.28;;
10347;SDS011;5220;43.192;23.284;2024-03-23T02:55:41;4.22;;;3.80;;
10347;SDS011;5220;43.192;23.284;2024-03-23T02:58:09;4.82;;;4.13;;
10347;SDS011;5220;43.192;23.284;2024-03-23T03:00:34;10.48;;;6.65;;
10347;SDS011;5220;43.192;23.284;2024-03-23T03:03:01;20.92;;;11.25;;
10347;SDS011;5220;43.192;23.284;2024-03-23T03:05:28;20.75;;;12.15;;
10347;SDS011;5220;43.192;23.284;2024-03-23T03:07:55;10.43;;;6.18;;
10347;SDS011;5220;43.192;23.284;2024-03-23T03:10:20;6.65;;;4.70;;
10347;SDS011;5220;43.192;23.284;2024-03-23T03:12:47;5.82;;;4.85;;
10347;SDS011;5220;43.192;23.284;2024-03-23T03:15:14;5.28;;;3.47;;
10347;SDS011;5220;43.192;23.284;2024-03-23T03:17:41;4.25;;;2.92;;
10347;SDS011;5220;43.192;23.284;2024-03-23T03:20:08;5.95;;;4.00;;
10347;SDS011;5220;43.192;23.284;2024-03-23T03:22:38;4.57;;;3.70;;
10347;SDS011;5220;43.192;23.284;2024-03-23T03:25:05;8.02;;;4.43;;
10347;SDS011;5220;43.192;23.284;2024-03-23T03:27:32;4.35;;;3.67;;
10347;SDS011;5220;43.192;23.284;2024-03-23T03:29:59;4.13;;;2.85;;
10347;SDS011;5220;43.192;23.284;2024-03-23T03:32:27;2.45;;;2.05;;
10347;SDS011;5220;43.192;23.284;2024-03-23T03:34:55;3.75;;;2.28;;
10347;SDS011;5220;43.192;23.284;2024-03-23T03:37:20;2.67;;;2.30;;
10347;SDS011;5220;43.192;23.284;2024-03-23T03:39:47;3.53;;;2.70;;
10347;SDS011;5220;43.192;23.284;2024-03-23T03:42:13;4.72;;;2.85;;
10347;SDS011;5220;43.192;23.284;2024-03-23T03:44:39;4.57;;;3.20;;
10347;SDS011;5220;43.192;23.284;2024-03-23T03:47:05;7.88;;;4.38;;
10347;SDS011;5220;43.192;23.284;2024-03-23T03:49:34;11.57;;;7.13;;
10347;SDS011;5220;43.192;23.284;2024-03-23T03:52:00;15.20;;;8.88;;
10347;SDS011;5220;43.192;23.284;2024-03-23T03:54:27;15.13;;;9.13;;
10347;SDS011;5220;43.192;23.284;2024-03-23T03:56:52;12.18;;;8.05;;
10347;SDS011;5220;43.192;23.284;2024-03-23T03:59:19;10.93;;;6.93;;
10347;SDS011;5220;43.192;23.284;2024-03-23T04:01:45;11.05;;;6.72;;
10347;SDS011;5220;43.192;23.284;2024-03-23T04:04:12;4.45;;;3.53;;
10347;SDS011;5220;43.192;23.284;2024-03-23T04:06:40;4.53;;;3.72;;
10347;SDS011;5220;43.192;23.284;2024-03-23T04:09:07;4.63;;;3.53;;
10347;SDS011;5220;43.192;23.284;2024-03-23T04:11:32;3.17;;;2.88;;
10347;SDS011;5220;43.192;23.284;2024-03-23T04:13:59;2.70;;;2.50;;
10347;SDS011;5220;43.192;23.284;2024-03-23T04:16:26;4.15;;;2.97;;
10347;SDS011;5220;43.192;23.284;2024-03-23T04:18:53;4.78;;;2.83;;
10347;SDS011;5220;43.192;23.284;2024-03-23T04:21:19;4.03;;;3.15;;
10347;SDS011;5220;43.192;23.284;2024-03-23T04:23:47;2.72;;;2.50;;
10347;SDS011;5220;43.192;23.284;2024-03-23T04:26:13;5.30;;;3.40;;
10347;SDS011;5220;43.192;23.284;2024-03-23T04:28:40;4.18;;;2.97;;
10347;SDS011;5220;43.192;23.284;2024-03-23T04:31:05;3.40;;;2.97;;
10347;SDS011;5220;43.192;23.284;2024-03-23T04:33:32;2.55;;;2.35;;
10347;SDS011;5220;43.192;23.284;2024-03-23T04:35:58;4.22;;;2.38;;
10347;SDS011;5220;43.192;23.284;2024-03-23T04:38:24;2.80;;;2.60;;
10347;SDS011;5220;43.192;23.284;2024-03-23T04:40:56;4.05;;;2.38;;
10347;SDS011;5220;43.192;23.284;2024-03-23T04:43:22;3.92;;;2.30;;
10347;SDS011;5220;43.192;23.284;2024-03-23T04:45:49;2.92;;;2.08;;
10347;SDS011;5220;43.192;23.284;2024-03-23T04:48:16;3.80;;;2.10;;
10347;SDS011;5220;43.192;23.284;2024-03-23T04:50:43;4.18;;;2.58;;
10347;SDS011;5220;43.192;23.284;2024-03-23T04:53:09;2.60;;;2.35;;
10347;SDS011;5220;43.192;23.284;2024-03-23T04:55:36;4.80;;;2.95;;
10347;SDS011;5220;43.192;23.284;2024-03-23T04:58:04;4.30;;;3.90;;
10347;SDS011;5220;43.192;23.284;2024-03-23T05:00:30;7.18;;;6.40;;
10347;SDS011;5220;43.192;23.284;2024-03-23T05:02:56;4.80;;;4.30;;
10347;SDS011;5220;43.192;23.284;2024-03-23T05:05:22;3.72;;;3.20;;
10347;SDS011;5220;43.192;23.284;2024-03-23T05:07:49;2.83;;;2.50;;
10347;SDS011;5220;43.192;23.284;2024-03-23T05:10:14;3.38;;;2.65;;
10347;SDS011;5220;43.192;23.284;2024-03-23T05:12:41;4.47;;;3.83;;
10347;SDS011;5220;43.192;23.284;2024-03-23T05:15:08;8.32;;;5.32;;
10347;SDS011;5220;43.192;23.284;2024-03-23T05:17:35;7.80;;;5.78;;
10347;SDS011;5220;43.192;23.284;2024-03-23T05:20:03;6.53;;;5.53;;
10347;SDS011;5220;43.192;23.284;2024-03-23T05:22:30;4.57;;;3.40;;
10347;SDS011;5220;43.192;23.284;2024-03-23T05:24:56;4.88;;;2.92;;
10347;SDS011;5220;43.192;23.284;2024-03-23T05:27:22;3.58;;;2.60;;
10347;SDS011;5220;43.192;23.284;2024-03-23T05:29:48;3.70;;;2.90;;
10347;SDS011;5220;43.192;23.284;2024-03-23T05:32:16;3.03;;;2.67;;
10347;SDS011;5220;43.192;23.284;2024-03-23T05:34:42;5.30;;;4.63;;
10347;SDS011;5220;43.192;23.284;2024-03-23T05:37:10;4.45;;;3.83;;
10347;SDS011;5220;43.192;23.284;2024-03-23T05:39:36;3.22;;;2.92;;
10347;SDS011;5220;43.192;23.284;2024-03-23T05:42:02;3.30;;;2.67;;
10347;SDS011;5220;43.192;23.284;2024-03-23T05:44:28;3.30;;;2.80;;
10347;SDS011;5220;43.192;23.284;2024-03-23T05:46:56;3.75;;;2.90;;
10347;SDS011;5220;43.192;23.284;2024-03-23T05:49:23;4.65;;;2.85;;
10347;SDS011;5220;43.192;23.284;2024-03-23T05:51:50;2.85;;;2.38;;
10347;SDS011;5220;43.192;23.284;2024-03-23T05:54:15;5.03;;;2.92;;
10347;SDS011;5220;43.192;23.284;2024-03-23T05:56:42;4.25;;;2.65;;
10347;SDS011;5220;43.192;23.284;2024-03-23T05:59:08;3.92;;;2.80;;
10347;SDS011;5220;43.192;23.284;2024-03-23T06:01:35;2.85;;;2.58;;
10347;SDS011;5220;43.192;23.284;2024-03-23T06:04:00;3.03;;;2.65;;
10347;SDS011;5220;43.192;23.284;2024-03-23T06:06:29;3.10;;;2.65;;
10347;SDS011;5220;43.192;23.284;2024-03-23T06:08:55;3.38;;;2.65;;
10347;SDS011;5220;43.192;23.284;2024-03-23T06:11:22;3.78;;;3.30;;
10347;SDS011;5220;43.192;23.284;2024-03-23T06:13:47;3.10;;;2.80;;
10347;SDS011;5220;43.192;23.284;2024-03-23T06:16:14;2.95;;;2.65;;
10347;SDS011;5220;43.192;23.284;2024-03-23T06:18:40;3.85;;;2.80;;
10347;SDS011;5220;43.192;23.284;2024-03-23T06:21:12;5.18;;;2.33;;
10347;SDS011;5220;43.192;23.284;2024-03-23T06:23:39;3.60;;;2.90;;
10347;SDS011;5220;43.192;23.284;2024-03-23T06:26:06;6.93;;;2.63;;
10347;SDS011;5220;43.192;23.284;2024-03-23T06:28:32;6.22;;;2.80;;
10347;SDS011;5220;43.192;23.284;2024-03-23T06:30:59;5.18;;;3.35;;
10347;SDS011;5220;43.192;23.284;2024-03-23T06:33:25;13.98;;;6.70;;
10347;SDS011;5220;43.192;23.284;2024-03-23T06:35:51;19.20;;;7.63;;
10347;SDS011;5220;43.192;23.284;2024-03-23T06:38:17;16.23;;;6.95;;
10347;SDS011;5220;43.192;23.284;2024-03-23T06:40:45;9.80;;;5.25;;
10347;SDS011;5220;43.192;23.284;2024-03-23T06:43:13;21.90;;;15.50;;
10347;SDS011;5220;43.192;23.284;2024-03-23T06:45:40;19.08;;;11.77;;
10347;SDS011;5220;43.192;23.284;2024-03-23T06:48:06;10.05;;;6.45;;
10347;SDS011;5220;43.192;23.284;2024-03-23T06:50:34;7.50;;;5.60;;
10347;SDS011;5220;43.192;23.284;2024-03-23T06:52:59;6.88;;;4.43;;
10347;SDS011;5220;43.192;23.284;2024-03-23T06:55:27;5.03;;;3.63;;
10347;SDS011;5220;43.192;23.284;2024-03-23T06:57:54;3.00;;;2.70;;
10347;SDS011;5220;43.192;23.284;2024-03-23T07:00:21;4.38;;;2.50;;
10347;SDS011;5220;43.192;23.284;2024-03-23T07:02:46;2.78;;;2.50;;
10347;SDS011;5220;43.192;23.284;2024-03-23T07:05:13;4.80;;;2.92;;
10347;SDS011;5220;43.192;23.284;2024-03-23T07:07:39;7.38;;;4.57;;
10347;SDS011;5220;43.192;23.284;2024-03-23T07:10:06;6.22;;;4.30;;
10347;SDS011;5220;43.192;23.284;2024-03-23T07:12:32;6.53;;;5.18;;
10347;SDS011;5220;43.192;23.284;2024-03-23T07:15:00;10.27;;;5.82;;
10347;SDS011;5220;43.192;23.284;2024-03-23T07:17:26;7.20;;;5.03;;
10347;SDS011;5220;43.192;23.284;2024-03-23T07:19:53;6.68;;;5.53;;
10347;SDS011;5220;43.192;23.284;2024-03-23T07:22:18;8.45;;;5.60;;
10347;SDS011;5220;43.192;23.284;2024-03-23T07:24:45;5.72;;;4.85;;
10347;SDS011;5220;43.192;23.284;2024-03-23T07:27:11;4.95;;;4.22;;
10347;SDS011;5220;43.192;23.284;2024-03-23T07:29:37;6.40;;;4.22;;
10347;SDS011;5220;43.192;23.284;2024-03-23T07:32:05;3.97;;;3.22;;
10347;SDS011;5220;43.192;23.284;2024-03-23T07:34:32;6.22;;;4.03;;
10347;SDS011;5220;43.192;23.284;2024-03-23T07:36:58;4.50;;;3.55;;
10347;SDS011;5220;43.192;23.284;2024-03-23T07:39:24;5.05;;;3.22;;
10347;SDS011;5220;43.192;23.284;2024-03-23T07:41:52;4.97;;;3.38;;
10347;SDS011;5220;43.192;23.284;2024-03-23T07:44:18;5.00;;;3.13;;
10347;SDS011;5220;43.192;23.284;2024-03-23T07:46:45;3.47;;;2.88;;
10347;SDS011;5220;43.192;23.284;2024-03-23T07:49:12;4.25;;;2.95;;
10347;SDS011;5220;43.192;23.284;2024-03-23T07:51:38;4.30;;;3.60;;
10347;SDS011;5220;43.192;23.284;2024-03-23T07:54:04;4.20;;;3.13;;
10347;SDS011;5220;43.192;23.284;2024-03-23T07:56:32;3.35;;;3.03;;
10347;SDS011;5220;43.192;23.284;2024-03-23T07:58:57;6.95;;;3.30;;
10347;SDS011;5220;43.192;23.284;2024-03-23T08:01:24;6.68;;;3.60;;
10347;SDS011;5220;43.192;23.284;2024-03-23T08:03:50;4.13;;;3.05;;
10347;SDS011;5220;43.192;23.284;2024-03-23T08:06:18;4.30;;;3.08;;
10347;SDS011;5220;43.192;23.284;2024-03-23T08:08:45;5.93;;;3.45;;
10347;SDS011;5220;43.192;23.284;2024-03-23T08:11:13;5.28;;;3.47;;
10347;SDS011;5220;43.192;23.284;2024-03-23T08:13:39;4.47;;;3.88;;
10347;SDS011;5220;43.192;23.284;2024-03-23T08:16:07;4.60;;;3.65;;
10347;SDS011;5220;43.192;23.284;2024-03-23T08:18:34;5.93;;;2.75;;
10347;SDS011;5220;43.192;23.284;2024-03-23T08:21:01;4.63;;;2.80;;
10347;SDS011;5220;43.192;23.284;2024-03-23T08:23:29;6.57;;;3.53;;
10347;SDS011;5220;43.192;23.284;2024-03-23T08:25:58;4.47;;;2.92;;
10347;SDS011;5220;43.192;23.284;2024-03-23T08:28:24;3.45;;;3.03;;
10347;SDS011;5220;43.192;23.284;2024-03-23T08:30:52;6.22;;;4.30;;
10347;SDS011;5220;43.192;23.284;2024-03-23T08:33:17;6.32;;;3.30;;
10347;SDS011;5220;43.192;23.284;2024-03-23T08:35:52;3.47;;;3.17;;
10347;SDS011;5220;43.192;23.284;2024-03-23T08:38:19;2.90;;;2.65;;
10347;SDS011;5220;43.192;23.284;2024-03-23T08:40:47;3.15;;;2.85;;
10347;SDS011;5220;43.192;23.284;2024-03-23T08:43:13;5.00;;;3.70;;
10347;SDS011;5220;43.192;23.284;2024-03-23T08:45:39;4.07;;;2.80;;
10347;SDS011;5220;43.192;23.284;2024-03-23T08:48:05;3.90;;;2.60;;
10347;SDS011;5220;43.192;23.284;2024-03-23T08:50:33;9.80;;;3.45;;
10347;SDS011;5220;43.192;23.284;2024-03-23T08:52:59;5.53;;;3.65;;
10347;SDS011;5220;43.192;23.284;2024-03-23T08:55:26;3.45;;;2.92;;
10347;SDS011;5220;43.192;23.284;2024-03-23T08:57:53;3.30;;;2.70;;
10347;SDS011;5220;43.192;23.284;2024-03-23T09:00:19;5.75;;;3.65;;
10347;SDS011;5220;43.192;23.284;2024-03-23T09:02:47;2.78;;;2.58;;
10347;SDS011;5220;43.192;23.284;2024-03-23T09:05:14;4.38;;;3.15;;
10347;SDS011;5220;43.192;23.284;2024-03-23T09:07:39;6.43;;;3.75;;
10347;SDS011;5220;43.192;23.284;2024-03-23T09:10:06;4.78;;;3.45;;
10347;SDS011;5220;43.192;23.284;2024-03-23T09:12:33;3.63;;;2.78;;
10347;SDS011;5220;43.192;23.284;2024-03-23T09:15:01;5.40;;;2.92;;
10347;SDS011;5220;43.192;23.284;2024-03-23T09:17:26;5.07;;;3.20;;
10347;SDS011;5220;43.192;23.284;2024-03-23T09:19:53;3.65;;;2.97;;
10347;SDS011;5220;43.192;23.284;2024-03-23T09:22:19;3.83;;;2.72;;
10347;SDS011;5220;43.192;23.284;2024-03-23T09:24:45;3.00;;;2.70;;
10347;SDS011;5220;43.192;23.284;2024-03-23T09:27:11;4.40;;;3.08;;
10347;SDS011;5220;43.192;23.284;2024-03-23T09:29:38;8.30;;;3.53;;
10347;SDS011;5220;43.192;23.284;2024-03-23T09:32:06;6.18;;;3.95;;
10347;SDS011;5220;43.192;23.284;2024-03-23T09:34:33;4.38;;;3.30;;
10347;SDS011;5220;43.192;23.284;2024-03-23T09:36:59;4.45;;;3.47;;
10347;SDS011;5220;43.192;23.284;2024-03-23T09:39:26;6.85;;;4.70;;
10347;SDS011;5220;43.192;23.284;2024-03-23T09:41:56;3.78;;;3.13;;
10347;SDS011;5220;43.192;23.284;2024-03-23T09:44:23;4.60;;;3.08;;
10347;SDS011;5220;43.192;23.284;2024-03-23T09:46:51;6.32;;;3.35;;
10347;SDS011;5220;43.192;23.284;2024-03-23T09:49:19;5.60;;;2.97;;
10347;SDS011;5220;43.192;23.284;2024-03-23T09:51:45;3.85;;;2.72;;
10347;SDS011;5220;43.192;23.284;2024-03-23T09:54:11;3.60;;;2.80;;
10347;SDS011;5220;43.192;23.284;2024-03-23T09:56:37;7.63;;;3.40;;
10347;SDS011;5220;43.192;23.284;2024-03-23T09:59:04;3.70;;;3.30;;
10347;SDS011;5220;43.192;23.284;2024-03-23T10:01:30;3.92;;;3.10;;
10347;SDS011;5220;43.192;23.284;2024-03-23T10:03:56;5.38;;;3.30;;
10347;SDS011;5220;43.192;23.284;2024-03-23T10:06:23;3.75;;;3.03;;
10347;SDS011;5220;43.192;23.284;2024-03-23T10:08:53;5.18;;;3.13;;
10347;SDS011;5220;43.192;23.284;2024-03-23T10:11:20;7.70;;;4.28;;
10347;SDS011;5220;43.192;23.284;2024-03-23T10:13:47;3.80;;;3.30;;
10347;SDS011;5220;43.192;23.284;2024-03-23T10:16:20;7.15;;;4.53;;
10347;SDS011;5220;43.192;23.284;2024-03-23T10:18:48;3.47;;;3.17;;
10347;SDS011;5220;43.192;23.284;2024-03-23T10:21:14;9.73;;;6.63;;
10347;SDS011;5220;43.192;23.284;2024-03-23T10:23:44;4.68;;;3.70;;
10347;SDS011;5220;43.192;23.284;2024-03-23T10:26:13;3.83;;;2.88;;
10347;SDS011;5220;43.192;23.284;2024-03-23T10:28:51;3.42;;;2.83;;
10347;SDS011;5220;43.192;23.284;2024-03-23T10:31:18;3.25;;;2.78;;
10347;SDS011;5220;43.192;23.284;2024-03-23T10:33:45;3.72;;;2.92;;
10347;SDS011;5220;43.192;23.284;2024-03-23T10:36:12;3.35;;;3.05;;
10347;SDS011;5220;43.192;23.284;2024-03-23T10:38:39;3.60;;;2.85;;
10347;SDS011;5220;43.192;23.284;2024-03-23T10:41:07;5.28;;;3.03;;
10347;SDS011;5220;43.192;23.284;2024-03-23T10:43:35;7.82;;;4.07;;
10347;SDS011;5220;43.192;23.284;2024-03-23T10:46:02;3.80;;;3.13;;
10347;SDS011;5220;43.192;23.284;2024-03-23T10:48:28;4.50;;;3.08;;
10347;SDS011;5220;43.192;23.284;2024-03-23T10:50:54;4.95;;;2.78;;
10347;SDS011;5220;43.192;23.284;2024-03-23T10:53:21;3.92;;;2.88;;
10347;SDS011;5220;43.192;23.284;2024-03-23T10:55:51;4.97;;;2.80;;
10347;SDS011;5220;43.192;23.284;2024-03-23T10:58:21;3.45;;;2.80;;
10347;SDS011;5220;43.192;23.284;2024-03-23T11:00:50;6.63;;;4.25;;
10347;SDS011;5220;43.192;23.284;2024-03-23T11:03:34;6.15;;;3.20;;
10347;SDS011;5220;43.192;23.284;2024-03-23T11:06:01;3.33;;;3.03;;
10347;SDS011;5220;43.192;23.284;2024-03-23T11:08:29;4.60;;;3.40;;
10347;SDS011;5220;43.192;23.284;2024-03-23T11:11:11;3.92;;;3.28;;
10347;SDS011;5220;43.192;23.284;2024-03-23T11:13:39;4.47;;;3.25;;
10347;SDS011;5220;43.192;23.284;2024-03-23T11:16:12;3.20;;;2.92;;
10347;SDS011;5220;43.192;23.284;2024-03-23T11:18:40;4.50;;;2.63;;
10347;SDS011;5220;43.192;23.284;2024-03-23T11:21:07;3.70;;;2.35;;
10347;SDS011;5220;43.192;23.284;2024-03-23T11:23:33;4.10;;;2.63;;
10347;SDS011;5220;43.192;23.284;2024-03-23T11:25:59;2.85;;;2.35;;
10347;SDS011;5220;43.192;23.284;2024-03-23T11:28:26;3.97;;;3.17;;
10347;SDS011;5220;43.192;23.284;2024-03-23T11:30:53;3.38;;;2.70;;
10347;SDS011;5220;43.192;23.284;2024-03-23T11:33:19;5.05;;;2.90;;
10347;SDS011;5220;43.192;23.284;2024-03-23T11:35:45;4.57;;;2.53;;
10347;SDS011;5220;43.192;23.284;2024-03-23T11:38:12;4.40;;;4.00;;
10347;SDS011;5220;43.192;23.284;2024-03-23T11:40:39;3.45;;;2.63;;
10347;SDS011;5220;43.192;23.284;2024-03-23T11:43:07;3.35;;;2.80;;
10347;SDS011;5220;43.192;23.284;2024-03-23T11:45:35;2.90;;;2.60;;
10347;SDS011;5220;43.192;23.284;2024-03-23T11:48:06;2.90;;;2.38;;
10347;SDS011;5220;43.192;23.284;2024-03-23T11:50:33;3.25;;;2.78;;
10347;SDS011;5220;43.192;23.284;2024-03-23T11:53:07;2.42;;;2.22;;
10347;SDS011;5220;43.192;23.284;2024-03-23T11:55:38;3.60;;;2.25;;
10347;SDS011;5220;43.192;23.284;2024-03-23T11:58:06;3.60;;;2.30;;
10347;SDS011;5220;43.192;23.284;2024-03-23T12:00:33;5.32;;;2.47;;
10347;SDS011;5220;43.192;23.284;2024-03-23T12:03:00;27.83;;;18.95;;
10347;SDS011;5220;43.192;23.284;2024-03-23T12:05:27;3.83;;;2.67;;
10347;SDS011;5220;43.192;23.284;2024-03-23T12:07:55;6.25;;;3.25;;
10347;SDS011;5220;43.192;23.284;2024-03-23T12:10:20;3.33;;;2.80;;
10347;SDS011;5220;43.192;23.284;2024-03-23T12:12:58;3.95;;;3.10;;
10347;SDS011;5220;43.192;23.284;2024-03-23T12:15:25;4.75;;;2.85;;
10347;SDS011;5220;43.192;23.284;2024-03-23T12:17:52;3.67;;;2.70;;
10347;SDS011;5220;43.192;23.284;2024-03-23T12:20:32;2.92;;;2.72;;
10347;SDS011;5220;43.192;23.284;2024-03-23T12:23:04;4.78;;;2.80;;
10347;SDS011;5220;43.192;23.284;2024-03-23T12:25:30;3.03;;;2.72;;
10347;SDS011;5220;43.192;23.284;2024-03-23T12:27:58;4.07;;;2.38;;
10347;SDS011;5220;43.192;23.284;2024-03-23T12:30:25;2.97;;;2.70;;
10347;SDS011;5220;43.192;23.284;2024-03-23T12:32:50;5.65;;;3.78;;
10347;SDS011;5220;43.192;23.284;2024-03-23T12:35:17;4.13;;;3.50;;
10347;SDS011;5220;43.192;23.284;2024-03-23T12:37:44;3.88;;;2.45;;
10347;SDS011;5220;43.192;23.284;2024-03-23T12:40:11;2.92;;;2.33;;
10347;SDS011;5220;43.192;23.284;2024-03-23T12:42:37;4.53;;;3.08;;
10347;SDS011;5220;43.192;23.284;2024-03-23T12:45:04;4.13;;;2.58;;
10347;SDS011;5220;43.192;23.284;2024-03-23T12:47:30;2.85;;;2.50;;
10347;SDS011;5220;43.192;23.284;2024-03-23T12:49:57;4.25;;;2.45;;
10347;SDS011;5220;43.192;23.284;2024-03-23T12:52:22;6.65;;;3.05;;
10347;SDS011;5220;43.192;23.284;2024-03-23T12:54:54;2.63;;;2.35;;
10347;SDS011;5220;43.192;23.284;2024-03-23T12:57:21;3.90;;;2.67;;
10347;SDS011;5220;43.192;23.284;2024-03-23T12:59:49;2.80;;;2.60;;
10347;SDS011;5220;43.192;23.284;2024-03-23T13:02:16;2.70;;;2.50;;
10347;SDS011;5220;43.192;23.284;2024-03-23T13:04:44;7.10;;;3.35;;
10347;SDS011;5220;43.192;23.284;2024-03-23T13:07:10;5.90;;;2.75;;
10347;SDS011;5220;43.192;23.284;2024-03-23T13:09:37;2.53;;;2.30;;
10347;SDS011;5220;43.192;23.284;2024-03-23T13:12:05;3.65;;;2.70;;
10347;SDS011;5220;43.192;23.284;2024-03-23T13:14:32;3.40;;;2.50;;
10347;SDS011;5220;43.192;23.284;2024-03-23T13:16:59;3.65;;;2.50;;
10347;SDS011;5220;43.192;23.284;2024-03-23T13:19:26;4.57;;;2.50;;
10347;SDS011;5220;43.192;23.284;2024-03-23T13:21:53;3.00;;;2.40;;
10347;SDS011;5220;43.192;23.284;2024-03-23T13:24:21;3.67;;;2.63;;
10347;SDS011;5220;43.192;23.284;2024-03-23T13:26:48;2.80;;;2.60;;
10347;SDS011;5220;43.192;23.284;2024-03-23T13:29:17;3.20;;;2.70;;
10347;SDS011;5220;43.192;23.284;2024-03-23T13:31:43;3.50;;;3.13;;
10347;SDS011;5220;43.192;23.284;2024-03-23T13:34:09;2.92;;;2.50;;
10347;SDS011;5220;43.192;23.284;2024-03-23T13:36:35;4.72;;;2.80;;
10347;SDS011;5220;43.192;23.284;2024-03-23T13:39:02;2.63;;;2.42;;
10347;SDS011;5220;43.192;23.284;2024-03-23T13:41:31;5.78;;;3.08;;
10347;SDS011;5220;43.192;23.284;2024-03-23T13:43:58;3.72;;;3.08;;
10347;SDS011;5220;43.192;23.284;2024-03-23T13:46:25;2.42;;;2.22;;
10347;SDS011;5220;43.192;23.284;2024-03-23T13:48:52;7.03;;;2.95;;
10347;SDS011;5220;43.192;23.284;2024-03-23T13:51:22;3.47;;;2.70;;
10347;SDS011;5220;43.192;23.284;2024-03-23T13:53:51;2.50;;;2.30;;
10347;SDS011;5220;43.192;23.284;2024-03-23T13:56:17;2.80;;;2.30;;
10347;SDS011;5220;43.192;23.284;2024-03-23T13:58:44;3.08;;;2.35;;
10347;SDS011;5220;43.192;23.284;2024-03-23T14:01:11;3.50;;;2.50;;
10347;SDS011;5220;43.192;23.284;2024-03-23T14:03:40;2.60;;;2.25;;
10347;SDS011;5220;43.192;23.284;2024-03-23T14:06:06;3.35;;;2.53;;
10347;SDS011;5220;43.192;23.284;2024-03-23T14:08:34;3.85;;;2.45;;
10347;SDS011;5220;43.192;23.284;2024-03-23T14:11:01;2.80;;;2.40;;
10347;SDS011;5220;43.192;23.284;2024-03-23T14:13:29;3.63;;;2.90;;
10347;SDS011;5220;43.192;23.284;2024-03-23T14:15:55;2.47;;;2.28;;
10347;SDS011;5220;43.192;23.284;2024-03-23T14:18:22;4.70;;;3.25;;
10347;SDS011;5220;43.192;23.284;2024-03-23T14:20:49;3.13;;;2.72;;
10347;SDS011;5220;43.192;23.284;2024-03-23T14:23:16;2.35;;;2.15;;
10347;SDS011;5220;43.192;23.284;2024-03-23T14:25:42;2.13;;;2.00;;
10347;SDS011;5220;43.192;23.284;2024-03-23T14:28:08;3.00;;;2.47;;
10347;SDS011;5220;43.192;23.284;2024-03-23T14:30:39;3.20;;;2.90;;
10347;SDS011;5220;43.192;23.284;2024-03-23T14:33:06;4.13;;;2.70;;
10347;SDS011;5220;43.192;23.284;2024-03-23T14:35:32;4.47;;;3.30;;
10347;SDS011;5220;43.192;23.284;2024-03-23T14:38:00;3.83;;;3.30;;
10347;SDS011;5220;43.192;23.284;2024-03-23T14:40:26;3.92;;;3.50;;
10347;SDS011;5220;43.192;23.284;2024-03-23T14:42:53;4.07;;;3.42;;
10347;SDS011;5220;43.192;23.284;2024-03-23T14:45:19;3.55;;;3.25;;
10347;SDS011;5220;43.192;23.284;2024-03-23T14:47:45;3.70;;;3.08;;
10347;SDS011;5220;43.192;23.284;2024-03-23T14:50:11;6.75;;;4.05;;
10347;SDS011;5220;43.192;23.284;2024-03-23T14:52:40;4.43;;;2.78;;
10347;SDS011;5220;43.192;23.284;2024-03-23T14:55:08;4.07;;;2.70;;
10347;SDS011;5220;43.192;23.284;2024-03-23T14:57:35;5.28;;;2.58;;
10347;SDS011;5220;43.192;23.284;2024-03-23T15:00:00;10.18;;;4.97;;
10347;SDS011;5220;43.192;23.284;2024-03-23T15:02:30;4.70;;;2.60;;
10347;SDS011;5220;43.192;23.284;2024-03-23T15:04:57;3.10;;;2.22;;
10347;SDS011;5220;43.192;23.284;2024-03-23T15:07:24;5.88;;;4.78;;
10347;SDS011;5220;43.192;23.284;2024-03-23T15:09:49;9.13;;;5.82;;
10347;SDS011;5220;43.192;23.284;2024-03-23T15:12:17;3.92;;;2.60;;
10347;SDS011;5220;43.192;23.284;2024-03-23T15:14:43;44.80;;;27.35;;
10347;SDS011;5220;43.192;23.284;2024-03-23T15:17:11;17.55;;;12.07;;
10347;SDS011;5220;43.192;23.284;2024-03-23T15:19:36;6.55;;;5.43;;
10347;SDS011;5220;43.192;23.284;2024-03-23T15:22:03;10.27;;;4.55;;
10347;SDS011;5220;43.192;23.284;2024-03-23T15:24:30;3.83;;;3.10;;
10347;SDS011;5220;43.192;23.284;2024-03-23T15:26:57;25.30;;;16.50;;
10347;SDS011;5220;43.192;23.284;2024-03-23T15:29:24;5.22;;;3.90;;
10347;SDS011;5220;43.192;23.284;2024-03-23T15:31:51;4.60;;;3.53;;
10347;SDS011;5220;43.192;23.284;2024-03-23T15:34:17;4.05;;;3.20;;
10347;SDS011;5220;43.192;23.284;2024-03-23T15:36:46;6.43;;;3.05;;